<?xml version="1.0" encoding="utf-8"?>
<gpx xmlns:xsi="http://www.w3.org/2001/XMLSchema-instance" xmlns:xsd="http://www.w3.org/2001/XMLSchema" version="1.1" creator="Shapelink.com" xmlns="http://www.topografix.com/GPX/1/1" xmlns:gpxtpx="http://www.garmin.com/xmlschemas/TrackPointExtension/v1">
  <metadata>
    <name>Løping 0.36 km, 2013-03-06</name>
    <desc></desc>
    <author><name>Mikael Blom</name></author> 
    <time>2013-03-06T18:48:04Z</time>
  </metadata>
  <trk>
    <name>Løping 0.36 km, 2013-03-06</name>
    <trkseg>
      <trkpt lat="59.968943" lon="17.7561068">
        <ele>40.9934</ele>
        <time>2013-03-06T18:48:04Z</time>
      </trkpt>
      <trkpt lat="59.96895" lon="17.7560649">
        <ele>39.5513</ele>
        <time>2013-03-06T18:48:05Z</time>
      </trkpt>
      <trkpt lat="59.9689635" lon="17.7560177">
        <ele>38.5901</ele>
        <time>2013-03-06T18:48:06Z</time>
      </trkpt>
      <trkpt lat="59.9689752" lon="17.7559653">
        <ele>37.6287</ele>
        <time>2013-03-06T18:48:07Z</time>
      </trkpt>
      <trkpt lat="59.9689891" lon="17.7558949">
        <ele>37.6287</ele>
        <time>2013-03-06T18:48:08Z</time>
      </trkpt>
      <trkpt lat="59.9690108" lon="17.7558203">
        <ele>37.1481</ele>
        <time>2013-03-06T18:48:09Z</time>
      </trkpt>
      <trkpt lat="59.9690342" lon="17.7557575">
        <ele>36.6675</ele>
        <time>2013-03-06T18:48:10Z</time>
      </trkpt>
      <trkpt lat="59.96906" lon="17.7557286">
        <ele>35.2255</ele>
        <time>2013-03-06T18:48:11Z</time>
      </trkpt>
      <trkpt lat="59.9690865" lon="17.7556996">
        <ele>35.2255</ele>
        <time>2013-03-06T18:48:12Z</time>
      </trkpt>
      <trkpt lat="59.9691067" lon="17.7556575">
        <ele>35.2255</ele>
        <time>2013-03-06T18:48:13Z</time>
      </trkpt>
      <trkpt lat="59.9691279" lon="17.7556175">
        <ele>35.7061</ele>
        <time>2013-03-06T18:48:14Z</time>
      </trkpt>
      <trkpt lat="59.9691478" lon="17.7555825">
        <ele>36.1868</ele>
        <time>2013-03-06T18:48:15Z</time>
      </trkpt>
      <trkpt lat="59.9691693" lon="17.7555463">
        <ele>36.1868</ele>
        <time>2013-03-06T18:48:16Z</time>
      </trkpt>
      <trkpt lat="59.9691893" lon="17.7555037">
        <ele>35.7061</ele>
        <time>2013-03-06T18:48:17Z</time>
      </trkpt>
      <trkpt lat="59.9692089" lon="17.7554661">
        <ele>35.7061</ele>
        <time>2013-03-06T18:48:18Z</time>
      </trkpt>
      <trkpt lat="59.9692296" lon="17.7554337">
        <ele>35.2255</ele>
        <time>2013-03-06T18:48:19Z</time>
      </trkpt>
      <trkpt lat="59.9692517" lon="17.7554029">
        <ele>35.2255</ele>
        <time>2013-03-06T18:48:20Z</time>
      </trkpt>
      <trkpt lat="59.9692705" lon="17.7553674">
        <ele>34.7449</ele>
        <time>2013-03-06T18:48:21Z</time>
      </trkpt>
      <trkpt lat="59.9692885" lon="17.755328">
        <ele>34.2642</ele>
        <time>2013-03-06T18:48:22Z</time>
      </trkpt>
      <trkpt lat="59.9693076" lon="17.755283">
        <ele>33.7834</ele>
        <time>2013-03-06T18:48:23Z</time>
      </trkpt>
      <trkpt lat="59.9693289" lon="17.755235">
        <ele>33.7834</ele>
        <time>2013-03-06T18:48:24Z</time>
      </trkpt>
      <trkpt lat="59.9693503" lon="17.7551966">
        <ele>33.3029</ele>
        <time>2013-03-06T18:48:25Z</time>
      </trkpt>
      <trkpt lat="59.96937" lon="17.7551426">
        <ele>33.3029</ele>
        <time>2013-03-06T18:48:26Z</time>
      </trkpt>
      <trkpt lat="59.9693896" lon="17.755079">
        <ele>33.3029</ele>
        <time>2013-03-06T18:48:27Z</time>
      </trkpt>
      <trkpt lat="59.9694109" lon="17.7550394">
        <ele>32.8223</ele>
        <time>2013-03-06T18:48:28Z</time>
      </trkpt>
      <trkpt lat="59.9694331" lon="17.7550086">
        <ele>32.8223</ele>
        <time>2013-03-06T18:48:29Z</time>
      </trkpt>
      <trkpt lat="59.9694537" lon="17.7549682">
        <ele>32.8223</ele>
        <time>2013-03-06T18:48:30Z</time>
      </trkpt>
      <trkpt lat="59.9694729" lon="17.7549147">
        <ele>33.3029</ele>
        <time>2013-03-06T18:48:31Z</time>
      </trkpt>
      <trkpt lat="59.9694882" lon="17.7548558">
        <ele>33.3029</ele>
        <time>2013-03-06T18:48:32Z</time>
      </trkpt>
      <trkpt lat="59.9695093" lon="17.7548189">
        <ele>33.7834</ele>
        <time>2013-03-06T18:48:33Z</time>
      </trkpt>
      <trkpt lat="59.9695311" lon="17.7547869">
        <ele>33.3029</ele>
        <time>2013-03-06T18:48:34Z</time>
      </trkpt>
      <trkpt lat="59.9695488" lon="17.7547522">
        <ele>33.3029</ele>
        <time>2013-03-06T18:48:35Z</time>
      </trkpt>
      <trkpt lat="59.969569" lon="17.7547278">
        <ele>32.3416</ele>
        <time>2013-03-06T18:48:36Z</time>
      </trkpt>
      <trkpt lat="59.9695927" lon="17.7546983">
        <ele>32.3416</ele>
        <time>2013-03-06T18:48:37Z</time>
      </trkpt>
      <trkpt lat="59.9696129" lon="17.754665">
        <ele>32.3416</ele>
        <time>2013-03-06T18:48:38Z</time>
      </trkpt>
      <trkpt lat="59.9696285" lon="17.7546183">
        <ele>32.8223</ele>
        <time>2013-03-06T18:48:39Z</time>
      </trkpt>
      <trkpt lat="59.9696435" lon="17.7545543">
        <ele>32.8223</ele>
        <time>2013-03-06T18:48:40Z</time>
      </trkpt>
      <trkpt lat="59.969664" lon="17.7545174">
        <ele>32.8223</ele>
        <time>2013-03-06T18:48:41Z</time>
      </trkpt>
      <trkpt lat="59.9696863" lon="17.7544797">
        <ele>33.3029</ele>
        <time>2013-03-06T18:48:42Z</time>
      </trkpt>
      <trkpt lat="59.969705" lon="17.7544309">
        <ele>33.7834</ele>
        <time>2013-03-06T18:48:43Z</time>
      </trkpt>
      <trkpt lat="59.9697232" lon="17.7543761">
        <ele>34.2642</ele>
        <time>2013-03-06T18:48:44Z</time>
      </trkpt>
      <trkpt lat="59.9697419" lon="17.7543352">
        <ele>34.2642</ele>
        <time>2013-03-06T18:48:45Z</time>
      </trkpt>
      <trkpt lat="59.9697621" lon="17.7543122">
        <ele>34.7449</ele>
        <time>2013-03-06T18:48:46Z</time>
      </trkpt>
      <trkpt lat="59.9697778" lon="17.7542823">
        <ele>34.7449</ele>
        <time>2013-03-06T18:48:47Z</time>
      </trkpt>
      <trkpt lat="59.9697968" lon="17.7542554">
        <ele>35.2255</ele>
        <time>2013-03-06T18:48:48Z</time>
      </trkpt>
      <trkpt lat="59.9698179" lon="17.7542341">
        <ele>35.7061</ele>
        <time>2013-03-06T18:48:49Z</time>
      </trkpt>
      <trkpt lat="59.9698391" lon="17.7542065">
        <ele>35.7061</ele>
        <time>2013-03-06T18:48:50Z</time>
      </trkpt>
      <trkpt lat="59.9698584" lon="17.7541803">
        <ele>36.1868</ele>
        <time>2013-03-06T18:48:51Z</time>
      </trkpt>
      <trkpt lat="59.9698755" lon="17.7541641">
        <ele>35.7061</ele>
        <time>2013-03-06T18:48:52Z</time>
      </trkpt>
      <trkpt lat="59.9698942" lon="17.7541519">
        <ele>35.2255</ele>
        <time>2013-03-06T18:48:53Z</time>
      </trkpt>
      <trkpt lat="59.9699137" lon="17.7541275">
        <ele>35.2255</ele>
        <time>2013-03-06T18:48:54Z</time>
      </trkpt>
      <trkpt lat="59.9699313" lon="17.7540917">
        <ele>35.2255</ele>
        <time>2013-03-06T18:48:55Z</time>
      </trkpt>
      <trkpt lat="59.9699485" lon="17.7540564">
        <ele>34.7449</ele>
        <time>2013-03-06T18:48:56Z</time>
      </trkpt>
      <trkpt lat="59.9699658" lon="17.7540197">
        <ele>34.7449</ele>
        <time>2013-03-06T18:48:57Z</time>
      </trkpt>
      <trkpt lat="59.9699786" lon="17.7539689">
        <ele>35.2255</ele>
        <time>2013-03-06T18:48:58Z</time>
      </trkpt>
      <trkpt lat="59.9699929" lon="17.7539208">
        <ele>35.2255</ele>
        <time>2013-03-06T18:48:59Z</time>
      </trkpt>
      <trkpt lat="59.9700077" lon="17.7538794">
        <ele>35.2255</ele>
        <time>2013-03-06T18:49:00Z</time>
      </trkpt>
      <trkpt lat="59.9700204" lon="17.753845">
        <ele>34.7449</ele>
        <time>2013-03-06T18:49:01Z</time>
      </trkpt>
      <trkpt lat="59.9700361" lon="17.7538201">
        <ele>34.2642</ele>
        <time>2013-03-06T18:49:02Z</time>
      </trkpt>
      <trkpt lat="59.9700539" lon="17.75379">
        <ele>34.7449</ele>
        <time>2013-03-06T18:49:03Z</time>
      </trkpt>
      <trkpt lat="59.9700692" lon="17.7537528">
        <ele>34.2642</ele>
        <time>2013-03-06T18:49:04Z</time>
      </trkpt>
      <trkpt lat="59.9700857" lon="17.7537201">
        <ele>34.2642</ele>
        <time>2013-03-06T18:49:05Z</time>
      </trkpt>
      <trkpt lat="59.9701024" lon="17.7536757">
        <ele>34.7449</ele>
        <time>2013-03-06T18:49:06Z</time>
      </trkpt>
      <trkpt lat="59.9701196" lon="17.7536227">
        <ele>34.7449</ele>
        <time>2013-03-06T18:49:07Z</time>
      </trkpt>
      <trkpt lat="59.9701342" lon="17.7535794">
        <ele>34.2642</ele>
        <time>2013-03-06T18:49:08Z</time>
      </trkpt>
      <trkpt lat="59.970148" lon="17.7535486">
        <ele>34.2642</ele>
        <time>2013-03-06T18:49:09Z</time>
      </trkpt>
      <trkpt lat="59.9701646" lon="17.7535145">
        <ele>34.7449</ele>
        <time>2013-03-06T18:49:10Z</time>
      </trkpt>
      <trkpt lat="59.9701802" lon="17.753465">
        <ele>34.7449</ele>
        <time>2013-03-06T18:49:11Z</time>
      </trkpt>
      <trkpt lat="59.9701963" lon="17.7534193">
        <ele>35.2255</ele>
        <time>2013-03-06T18:49:12Z</time>
      </trkpt>
      <trkpt lat="59.9702112" lon="17.7533798">
        <ele>35.2255</ele>
        <time>2013-03-06T18:49:13Z</time>
      </trkpt>
      <trkpt lat="59.9702273" lon="17.753341">
        <ele>35.2255</ele>
        <time>2013-03-06T18:49:14Z</time>
      </trkpt>
      <trkpt lat="59.9702418" lon="17.7533012">
        <ele>34.7449</ele>
        <time>2013-03-06T18:49:15Z</time>
      </trkpt>
      <trkpt lat="59.9702578" lon="17.7532656">
        <ele>35.2255</ele>
        <time>2013-03-06T18:49:16Z</time>
      </trkpt>
      <trkpt lat="59.9702748" lon="17.7532297">
        <ele>35.2255</ele>
        <time>2013-03-06T18:49:17Z</time>
      </trkpt>
      <trkpt lat="59.9702955" lon="17.7532001">
        <ele>35.2255</ele>
        <time>2013-03-06T18:49:18Z</time>
      </trkpt>
      <trkpt lat="59.9703126" lon="17.7531618">
        <ele>35.7061</ele>
        <time>2013-03-06T18:49:19Z</time>
      </trkpt>
      <trkpt lat="59.9703268" lon="17.7531246">
        <ele>35.7061</ele>
        <time>2013-03-06T18:49:20Z</time>
      </trkpt>
      <trkpt lat="59.9703426" lon="17.7530909">
        <ele>35.7061</ele>
        <time>2013-03-06T18:49:21Z</time>
      </trkpt>
      <trkpt lat="59.9703583" lon="17.753051">
        <ele>35.7061</ele>
        <time>2013-03-06T18:49:22Z</time>
      </trkpt>
      <trkpt lat="59.9703702" lon="17.753011">
        <ele>35.2255</ele>
        <time>2013-03-06T18:49:23Z</time>
      </trkpt>
      <trkpt lat="59.970383" lon="17.7529705">
        <ele>35.2255</ele>
        <time>2013-03-06T18:49:24Z</time>
      </trkpt>
      <trkpt lat="59.970396" lon="17.7529284">
        <ele>35.7061</ele>
        <time>2013-03-06T18:49:25Z</time>
      </trkpt>
      <trkpt lat="59.9704068" lon="17.7528893">
        <ele>35.2255</ele>
        <time>2013-03-06T18:49:26Z</time>
      </trkpt>
      <trkpt lat="59.9704206" lon="17.7528495">
        <ele>34.7449</ele>
        <time>2013-03-06T18:49:27Z</time>
      </trkpt>
      <trkpt lat="59.9704356" lon="17.7528065">
        <ele>34.7449</ele>
        <time>2013-03-06T18:49:28Z</time>
      </trkpt>
      <trkpt lat="59.9704505" lon="17.75277">
        <ele>34.7449</ele>
        <time>2013-03-06T18:49:29Z</time>
      </trkpt>
      <trkpt lat="59.9704697" lon="17.7527379">
        <ele>34.7449</ele>
        <time>2013-03-06T18:49:30Z</time>
      </trkpt>
      <trkpt lat="59.9704882" lon="17.7527023">
        <ele>34.7449</ele>
        <time>2013-03-06T18:49:31Z</time>
      </trkpt>
      <trkpt lat="59.9705025" lon="17.7526589">
        <ele>34.7449</ele>
        <time>2013-03-06T18:49:32Z</time>
      </trkpt>
      <trkpt lat="59.9705188" lon="17.7526117">
        <ele>34.7449</ele>
        <time>2013-03-06T18:49:33Z</time>
      </trkpt>
      <trkpt lat="59.9705345" lon="17.7525692">
        <ele>34.2642</ele>
        <time>2013-03-06T18:49:34Z</time>
      </trkpt>
      <trkpt lat="59.9705491" lon="17.7525378">
        <ele>33.3029</ele>
        <time>2013-03-06T18:49:35Z</time>
      </trkpt>
      <trkpt lat="59.970561" lon="17.7524972">
        <ele>32.8223</ele>
        <time>2013-03-06T18:49:36Z</time>
      </trkpt>
      <trkpt lat="59.9705759" lon="17.7524593">
        <ele>32.8223</ele>
        <time>2013-03-06T18:49:37Z</time>
      </trkpt>
      <trkpt lat="59.9705924" lon="17.7524226">
        <ele>32.8223</ele>
        <time>2013-03-06T18:49:38Z</time>
      </trkpt>
      <trkpt lat="59.9706102" lon="17.7523822">
        <ele>33.3029</ele>
        <time>2013-03-06T18:49:39Z</time>
      </trkpt>
      <trkpt lat="59.9706267" lon="17.7523422">
        <ele>32.8223</ele>
        <time>2013-03-06T18:49:40Z</time>
      </trkpt>
      <trkpt lat="59.9706427" lon="17.7523035">
        <ele>32.8223</ele>
        <time>2013-03-06T18:49:41Z</time>
      </trkpt>
      <trkpt lat="59.9706583" lon="17.7522583">
        <ele>32.8223</ele>
        <time>2013-03-06T18:49:42Z</time>
      </trkpt>
      <trkpt lat="59.9706744" lon="17.7522226">
        <ele>32.8223</ele>
        <time>2013-03-06T18:49:43Z</time>
      </trkpt>
      <trkpt lat="59.9706881" lon="17.7521896">
        <ele>32.3416</ele>
        <time>2013-03-06T18:49:44Z</time>
      </trkpt>
      <trkpt lat="59.9707023" lon="17.7521584">
        <ele>32.3416</ele>
        <time>2013-03-06T18:49:45Z</time>
      </trkpt>
      <trkpt lat="59.9707202" lon="17.7521321">
        <ele>32.3416</ele>
        <time>2013-03-06T18:49:46Z</time>
      </trkpt>
      <trkpt lat="59.9707413" lon="17.7521067">
        <ele>32.3416</ele>
        <time>2013-03-06T18:49:47Z</time>
      </trkpt>
      <trkpt lat="59.9707608" lon="17.7520786">
        <ele>32.3416</ele>
        <time>2013-03-06T18:49:48Z</time>
      </trkpt>
      <trkpt lat="59.9707796" lon="17.7520514">
        <ele>32.3416</ele>
        <time>2013-03-06T18:49:49Z</time>
      </trkpt>
      <trkpt lat="59.9707992" lon="17.7520171">
        <ele>32.3416</ele>
        <time>2013-03-06T18:49:50Z</time>
      </trkpt>
      <trkpt lat="59.9708181" lon="17.7519855">
        <ele>32.3416</ele>
        <time>2013-03-06T18:49:51Z</time>
      </trkpt>
      <trkpt lat="59.9708375" lon="17.7519518">
        <ele>31.8607</ele>
        <time>2013-03-06T18:49:52Z</time>
      </trkpt>
      <trkpt lat="59.9708589" lon="17.7519222">
        <ele>31.8607</ele>
        <time>2013-03-06T18:49:53Z</time>
      </trkpt>
      <trkpt lat="59.970878" lon="17.7518808">
        <ele>32.3416</ele>
        <time>2013-03-06T18:49:54Z</time>
      </trkpt>
      <trkpt lat="59.9708967" lon="17.7518434">
        <ele>32.8223</ele>
        <time>2013-03-06T18:49:55Z</time>
      </trkpt>
      <trkpt lat="59.9709158" lon="17.7518125">
        <ele>32.8223</ele>
        <time>2013-03-06T18:49:56Z</time>
      </trkpt>
      <trkpt lat="59.9709347" lon="17.7517835">
        <ele>32.8223</ele>
        <time>2013-03-06T18:49:57Z</time>
      </trkpt>
      <trkpt lat="59.970957" lon="17.7517601">
        <ele>32.8223</ele>
        <time>2013-03-06T18:49:58Z</time>
      </trkpt>
      <trkpt lat="59.9709775" lon="17.7517332">
        <ele>32.8223</ele>
        <time>2013-03-06T18:49:59Z</time>
      </trkpt>
      <trkpt lat="59.9709989" lon="17.7517093">
        <ele>32.8223</ele>
        <time>2013-03-06T18:50:00Z</time>
      </trkpt>
      <trkpt lat="59.971021" lon="17.7516822">
        <ele>32.8223</ele>
        <time>2013-03-06T18:50:01Z</time>
      </trkpt>
      <trkpt lat="59.971044" lon="17.7516558">
        <ele>32.8223</ele>
        <time>2013-03-06T18:50:02Z</time>
      </trkpt>
      <trkpt lat="59.971064" lon="17.7516266">
        <ele>32.3416</ele>
        <time>2013-03-06T18:50:03Z</time>
      </trkpt>
      <trkpt lat="59.971081" lon="17.7515989">
        <ele>32.3416</ele>
        <time>2013-03-06T18:50:04Z</time>
      </trkpt>
      <trkpt lat="59.9711004" lon="17.75157">
        <ele>31.8607</ele>
        <time>2013-03-06T18:50:05Z</time>
      </trkpt>
      <trkpt lat="59.971125" lon="17.7515451">
        <ele>31.8607</ele>
        <time>2013-03-06T18:50:06Z</time>
      </trkpt>
      <trkpt lat="59.9711487" lon="17.7515232">
        <ele>31.3801</ele>
        <time>2013-03-06T18:50:07Z</time>
      </trkpt>
      <trkpt lat="59.9711676" lon="17.7515022">
        <ele>31.3801</ele>
        <time>2013-03-06T18:50:08Z</time>
      </trkpt>
    </trkseg>
  </trk>
</gpx>